sensor_id;sensor_type;location;lat;lon;timestamp;P1;durP1;ratioP1;P2;durP2;ratioP2
20988;SDS011;10653;47.052;15.410;2024-02-15T00:00:11;9.18;;;7.10;;
20988;SDS011;10653;47.052;15.410;2024-02-15T00:02:38;11.20;;;6.13;;
20988;SDS011;10653;47.052;15.410;2024-02-15T00:05:04;7.43;;;6.60;;
20988;SDS011;10653;47.052;15.410;2024-02-15T00:07:30;7.32;;;6.40;;
20988;SDS011;10653;47.052;15.410;2024-02-15T00:09:56;7.82;;;6.47;;
20988;SDS011;10653;47.052;15.410;2024-02-15T00:12:24;8.07;;;6.55;;
20988;SDS011;10653;47.052;15.410;2024-02-15T00:14:50;10.57;;;7.20;;
20988;SDS011;10653;47.052;15.410;2024-02-15T00:17:16;7.30;;;6.33;;
20988;SDS011;10653;47.052;15.410;2024-02-15T00:19:43;10.30;;;6.95;;
20988;SDS011;10653;47.052;15.410;2024-02-15T00:22:09;8.60;;;6.47;;
20988;SDS011;10653;47.052;15.410;2024-02-15T00:24:38;8.40;;;6.60;;
20988;SDS011;10653;47.052;15.410;2024-02-15T00:27:04;8.35;;;6.40;;
20988;SDS011;10653;47.052;15.410;2024-02-15T00:29:30;7.97;;;6.15;;
20988;SDS011;10653;47.052;15.410;2024-02-15T00:31:56;9.65;;;5.95;;
20988;SDS011;10653;47.052;15.410;2024-02-15T00:34:22;8.00;;;5.83;;
20988;SDS011;10653;47.052;15.410;2024-02-15T00:36:51;7.15;;;5.93;;
20988;SDS011;10653;47.052;15.410;2024-02-15T00:39:17;7.67;;;5.20;;
20988;SDS011;10653;47.052;15.410;2024-02-15T00:41:47;11.90;;;6.10;;
20988;SDS011;10653;47.052;15.410;2024-02-15T00:44:13;7.30;;;6.38;;
20988;SDS011;10653;47.052;15.410;2024-02-15T00:46:39;7.57;;;6.37;;
20988;SDS011;10653;47.052;15.410;2024-02-15T00:49:06;7.65;;;5.32;;
20988;SDS011;10653;47.052;15.410;2024-02-15T00:51:33;9.73;;;6.10;;
20988;SDS011;10653;47.052;15.410;2024-02-15T00:53:59;6.70;;;5.10;;
20988;SDS011;10653;47.052;15.410;2024-02-15T00:56:26;9.57;;;5.70;;
20988;SDS011;10653;47.052;15.410;2024-02-15T00:58:53;9.07;;;6.43;;
20988;SDS011;10653;47.052;15.410;2024-02-15T01:01:19;8.73;;;6.28;;
20988;SDS011;10653;47.052;15.410;2024-02-15T01:03:45;7.25;;;5.00;;
20988;SDS011;10653;47.052;15.410;2024-02-15T01:06:11;6.13;;;5.25;;
20988;SDS011;10653;47.052;15.410;2024-02-15T01:08:37;6.28;;;5.68;;
20988;SDS011;10653;47.052;15.410;2024-02-15T01:11:03;7.05;;;5.30;;
20988;SDS011;10653;47.052;15.410;2024-02-15T01:13:29;6.83;;;4.50;;
20988;SDS011;10653;47.052;15.410;2024-02-15T01:15:55;7.70;;;5.20;;
20988;SDS011;10653;47.052;15.410;2024-02-15T01:18:21;6.90;;;5.45;;
20988;SDS011;10653;47.052;15.410;2024-02-15T01:20:47;6.45;;;5.30;;
20988;SDS011;10653;47.052;15.410;2024-02-15T01:23:13;6.40;;;5.38;;
20988;SDS011;10653;47.052;15.410;2024-02-15T01:25:39;6.20;;;5.40;;
20988;SDS011;10653;47.052;15.410;2024-02-15T01:28:06;5.72;;;5.13;;
20988;SDS011;10653;47.052;15.410;2024-02-15T01:30:32;6.15;;;4.95;;
20988;SDS011;10653;47.052;15.410;2024-02-15T01:32:58;7.85;;;5.43;;
20988;SDS011;10653;47.052;15.410;2024-02-15T01:35:25;6.95;;;4.85;;
20988;SDS011;10653;47.052;15.410;2024-02-15T01:37:51;5.60;;;5.03;;
20988;SDS011;10653;47.052;15.410;2024-02-15T01:40:17;8.05;;;5.65;;
20988;SDS011;10653;47.052;15.410;2024-02-15T01:42:44;10.02;;;5.68;;
20988;SDS011;10653;47.052;15.410;2024-02-15T01:45:11;6.05;;;5.38;;
20988;SDS011;10653;47.052;15.410;2024-02-15T01:47:37;8.35;;;4.97;;
20988;SDS011;10653;47.052;15.410;2024-02-15T01:50:05;6.47;;;5.38;;
20988;SDS011;10653;47.052;15.410;2024-02-15T01:52:32;6.93;;;5.10;;
20988;SDS011;10653;47.052;15.410;2024-02-15T01:54:58;6.03;;;5.43;;
20988;SDS011;10653;47.052;15.410;2024-02-15T01:57:25;9.05;;;4.80;;
20988;SDS011;10653;47.052;15.410;2024-02-15T01:59:51;5.82;;;5.03;;
20988;SDS011;10653;47.052;15.410;2024-02-15T02:02:17;7.03;;;4.63;;
20988;SDS011;10653;47.052;15.410;2024-02-15T02:04:45;6.30;;;5.70;;
20988;SDS011;10653;47.052;15.410;2024-02-15T02:07:11;6.78;;;5.28;;
20988;SDS011;10653;47.052;15.410;2024-02-15T02:09:37;6.07;;;5.03;;
20988;SDS011;10653;47.052;15.410;2024-02-15T02:12:03;6.28;;;5.15;;
20988;SDS011;10653;47.052;15.410;2024-02-15T02:14:30;7.28;;;6.20;;
20988;SDS011;10653;47.052;15.410;2024-02-15T02:17:01;7.78;;;4.88;;
20988;SDS011;10653;47.052;15.410;2024-02-15T02:19:35;5.38;;;4.75;;
20988;SDS011;10653;47.052;15.410;2024-02-15T02:22:03;6.82;;;5.13;;
20988;SDS011;10653;47.052;15.410;2024-02-15T02:24:30;5.90;;;4.60;;
20988;SDS011;10653;47.052;15.410;2024-02-15T02:27:03;6.15;;;5.55;;
20988;SDS011;10653;47.052;15.410;2024-02-15T02:29:30;6.50;;;5.05;;
20988;SDS011;10653;47.052;15.410;2024-02-15T02:31:56;5.50;;;4.40;;
20988;SDS011;10653;47.052;15.410;2024-02-15T02:34:22;7.05;;;4.88;;
20988;SDS011;10653;47.052;15.410;2024-02-15T02:36:49;7.53;;;5.40;;
20988;SDS011;10653;47.052;15.410;2024-02-15T02:39:16;5.90;;;5.20;;
20988;SDS011;10653;47.052;15.410;2024-02-15T02:41:42;6.97;;;4.97;;
20988;SDS011;10653;47.052;15.410;2024-02-15T02:44:08;6.03;;;5.43;;
20988;SDS011;10653;47.052;15.410;2024-02-15T02:46:34;9.65;;;5.57;;
20988;SDS011;10653;47.052;15.410;2024-02-15T02:49:00;6.70;;;5.53;;
20988;SDS011;10653;47.052;15.410;2024-02-15T02:51:26;8.20;;;5.75;;
20988;SDS011;10653;47.052;15.410;2024-02-15T02:53:52;6.40;;;5.80;;
20988;SDS011;10653;47.052;15.410;2024-02-15T02:56:18;6.83;;;6.03;;
20988;SDS011;10653;47.052;15.410;2024-02-15T02:58:44;11.13;;;6.95;;
20988;SDS011;10653;47.052;15.410;2024-02-15T03:01:10;7.87;;;6.90;;
20988;SDS011;10653;47.052;15.410;2024-02-15T03:03:36;8.68;;;5.72;;
20988;SDS011;10653;47.052;15.410;2024-02-15T03:06:03;8.70;;;7.03;;
20988;SDS011;10653;47.052;15.410;2024-02-15T03:08:29;11.82;;;7.20;;
20988;SDS011;10653;47.052;15.410;2024-02-15T03:10:56;8.13;;;7.13;;
20988;SDS011;10653;47.052;15.410;2024-02-15T03:13:22;8.48;;;6.60;;
20988;SDS011;10653;47.052;15.410;2024-02-15T03:15:48;7.37;;;6.50;;
20988;SDS011;10653;47.052;15.410;2024-02-15T03:18:15;6.20;;;5.50;;
20988;SDS011;10653;47.052;15.410;2024-02-15T03:20:41;7.40;;;6.45;;
20988;SDS011;10653;47.052;15.410;2024-02-15T03:23:07;7.80;;;6.03;;
20988;SDS011;10653;47.052;15.410;2024-02-15T03:25:33;7.15;;;5.85;;
20988;SDS011;10653;47.052;15.410;2024-02-15T03:27:59;9.70;;;6.25;;
20988;SDS011;10653;47.052;15.410;2024-02-15T03:30:30;7.38;;;5.15;;
20988;SDS011;10653;47.052;15.410;2024-02-15T03:32:56;7.25;;;5.90;;
20988;SDS011;10653;47.052;15.410;2024-02-15T03:35:23;6.40;;;5.60;;
20988;SDS011;10653;47.052;15.410;2024-02-15T03:37:49;10.80;;;6.15;;
20988;SDS011;10653;47.052;15.410;2024-02-15T03:40:19;8.40;;;4.80;;
20988;SDS011;10653;47.052;15.410;2024-02-15T03:42:45;6.80;;;5.60;;
20988;SDS011;10653;47.052;15.410;2024-02-15T03:45:12;6.85;;;5.55;;
20988;SDS011;10653;47.052;15.410;2024-02-15T03:47:38;7.40;;;6.10;;
20988;SDS011;10653;47.052;15.410;2024-02-15T03:52:30;7.30;;;5.93;;
20988;SDS011;10653;47.052;15.410;2024-02-15T03:54:56;9.52;;;6.43;;
20988;SDS011;10653;47.052;15.410;2024-02-15T03:57:23;7.63;;;6.05;;
20988;SDS011;10653;47.052;15.410;2024-02-15T03:59:49;7.50;;;5.65;;
20988;SDS011;10653;47.052;15.410;2024-02-15T04:02:17;5.40;;;4.90;;
20988;SDS011;10653;47.052;15.410;2024-02-15T04:04:43;6.97;;;5.55;;
20988;SDS011;10653;47.052;15.410;2024-02-15T04:07:12;8.82;;;7.03;;
20988;SDS011;10653;47.052;15.410;2024-02-15T04:09:39;7.40;;;6.57;;
20988;SDS011;10653;47.052;15.410;2024-02-15T04:12:05;6.40;;;5.80;;
20988;SDS011;10653;47.052;15.410;2024-02-15T04:14:32;6.70;;;6.10;;
20988;SDS011;10653;47.052;15.410;2024-02-15T04:16:59;11.25;;;6.65;;
20988;SDS011;10653;47.052;15.410;2024-02-15T04:19:25;8.30;;;7.50;;
20988;SDS011;10653;47.052;15.410;2024-02-15T04:21:51;9.20;;;7.45;;
20988;SDS011;10653;47.052;15.410;2024-02-15T04:24:17;9.35;;;6.95;;
20988;SDS011;10653;47.052;15.410;2024-02-15T04:26:43;13.02;;;8.23;;
20988;SDS011;10653;47.052;15.410;2024-02-15T04:29:12;11.40;;;8.48;;
20988;SDS011;10653;47.052;15.410;2024-02-15T04:31:39;9.15;;;8.25;;
20988;SDS011;10653;47.052;15.410;2024-02-15T04:34:05;12.25;;;9.32;;
20988;SDS011;10653;47.052;15.410;2024-02-15T04:36:31;8.85;;;7.95;;
20988;SDS011;10653;47.052;15.410;2024-02-15T04:38:59;11.70;;;9.00;;
20988;SDS011;10653;47.052;15.410;2024-02-15T04:41:29;13.52;;;9.13;;
20988;SDS011;10653;47.052;15.410;2024-02-15T04:43:55;13.50;;;9.27;;
20988;SDS011;10653;47.052;15.410;2024-02-15T04:46:22;12.18;;;9.23;;
20988;SDS011;10653;47.052;15.410;2024-02-15T04:48:48;17.05;;;11.25;;
20988;SDS011;10653;47.052;15.410;2024-02-15T04:51:14;13.93;;;11.80;;
20988;SDS011;10653;47.052;15.410;2024-02-15T04:53:41;12.07;;;10.13;;
20988;SDS011;10653;47.052;15.410;2024-02-15T04:56:07;13.60;;;10.88;;
20988;SDS011;10653;47.052;15.410;2024-02-15T04:58:39;12.23;;;9.43;;
20988;SDS011;10653;47.052;15.410;2024-02-15T05:01:15;11.63;;;9.65;;
20988;SDS011;10653;47.052;15.410;2024-02-15T05:03:44;12.82;;;10.10;;
20988;SDS011;10653;47.052;15.410;2024-02-15T05:06:11;11.30;;;9.38;;
20988;SDS011;10653;47.052;15.410;2024-02-15T05:08:40;11.87;;;9.37;;
20988;SDS011;10653;47.052;15.410;2024-02-15T05:11:10;10.60;;;9.45;;
20988;SDS011;10653;47.052;15.410;2024-02-15T05:13:40;13.00;;;10.10;;
20988;SDS011;10653;47.052;15.410;2024-02-15T05:16:06;15.88;;;11.50;;
20988;SDS011;10653;47.052;15.410;2024-02-15T05:18:32;10.48;;;9.30;;
20988;SDS011;10653;47.052;15.410;2024-02-15T05:21:00;12.15;;;9.23;;
20988;SDS011;10653;47.052;15.410;2024-02-15T05:23:27;10.77;;;9.13;;
20988;SDS011;10653;47.052;15.410;2024-02-15T05:25:53;13.97;;;9.10;;
20988;SDS011;10653;47.052;15.410;2024-02-15T05:28:21;11.30;;;9.30;;
20988;SDS011;10653;47.052;15.410;2024-02-15T05:31:07;17.92;;;10.77;;
20988;SDS011;10653;47.052;15.410;2024-02-15T05:33:34;13.02;;;9.43;;
20988;SDS011;10653;47.052;15.410;2024-02-15T05:36:01;11.45;;;8.73;;
20988;SDS011;10653;47.052;15.410;2024-02-15T05:38:27;11.80;;;9.02;;
20988;SDS011;10653;47.052;15.410;2024-02-15T05:40:53;13.43;;;9.20;;
20988;SDS011;10653;47.052;15.410;2024-02-15T05:43:19;9.63;;;8.60;;
20988;SDS011;10653;47.052;15.410;2024-02-15T05:45:45;12.02;;;8.15;;
20988;SDS011;10653;47.052;15.410;2024-02-15T05:48:11;9.85;;;8.85;;
20988;SDS011;10653;47.052;15.410;2024-02-15T05:50:37;13.10;;;9.70;;
20988;SDS011;10653;47.052;15.410;2024-02-15T05:53:03;12.48;;;9.90;;
20988;SDS011;10653;47.052;15.410;2024-02-15T05:55:29;12.95;;;9.95;;
20988;SDS011;10653;47.052;15.410;2024-02-15T05:57:59;13.85;;;9.35;;
20988;SDS011;10653;47.052;15.410;2024-02-15T06:00:25;12.63;;;10.00;;
20988;SDS011;10653;47.052;15.410;2024-02-15T06:02:51;11.33;;;9.10;;
20988;SDS011;10653;47.052;15.410;2024-02-15T06:05:18;12.75;;;10.20;;
20988;SDS011;10653;47.052;15.410;2024-02-15T06:07:44;14.60;;;9.48;;
20988;SDS011;10653;47.052;15.410;2024-02-15T06:10:11;12.23;;;10.45;;
20988;SDS011;10653;47.052;15.410;2024-02-15T06:12:37;10.98;;;9.75;;
20988;SDS011;10653;47.052;15.410;2024-02-15T06:15:03;12.17;;;9.73;;
20988;SDS011;10653;47.052;15.410;2024-02-15T06:17:30;20.42;;;13.10;;
20988;SDS011;10653;47.052;15.410;2024-02-15T06:19:57;18.30;;;13.00;;
20988;SDS011;10653;47.052;15.410;2024-02-15T06:22:23;18.38;;;12.07;;
20988;SDS011;10653;47.052;15.410;2024-02-15T06:24:49;16.48;;;11.00;;
20988;SDS011;10653;47.052;15.410;2024-02-15T06:27:15;14.30;;;11.93;;
20988;SDS011;10653;47.052;15.410;2024-02-15T06:29:42;16.40;;;11.90;;
20988;SDS011;10653;47.052;15.410;2024-02-15T06:32:37;15.45;;;12.60;;
20988;SDS011;10653;47.052;15.410;2024-02-15T06:35:22;16.83;;;12.20;;
20988;SDS011;10653;47.052;15.410;2024-02-15T06:38:06;19.23;;;13.10;;
20988;SDS011;10653;47.052;15.410;2024-02-15T06:40:51;16.65;;;12.68;;
20988;SDS011;10653;47.052;15.410;2024-02-15T06:43:19;15.80;;;12.80;;
20988;SDS011;10653;47.052;15.410;2024-02-15T06:45:45;19.77;;;12.98;;
20988;SDS011;10653;47.052;15.410;2024-02-15T06:48:12;19.90;;;14.00;;
20988;SDS011;10653;47.052;15.410;2024-02-15T06:50:38;16.80;;;13.17;;
20988;SDS011;10653;47.052;15.410;2024-02-15T06:53:05;18.50;;;12.47;;
20988;SDS011;10653;47.052;15.410;2024-02-15T06:55:31;17.20;;;11.40;;
20988;SDS011;10653;47.052;15.410;2024-02-15T06:57:57;16.13;;;12.03;;
20988;SDS011;10653;47.052;15.410;2024-02-15T07:00:24;16.83;;;11.50;;
20988;SDS011;10653;47.052;15.410;2024-02-15T07:02:50;14.88;;;12.30;;
20988;SDS011;10653;47.052;15.410;2024-02-15T07:05:16;10.90;;;9.20;;
20988;SDS011;10653;47.052;15.410;2024-02-15T07:07:44;15.30;;;11.60;;
20988;SDS011;10653;47.052;15.410;2024-02-15T07:10:11;18.07;;;12.80;;
20988;SDS011;10653;47.052;15.410;2024-02-15T07:12:38;16.03;;;11.80;;
20988;SDS011;10653;47.052;15.410;2024-02-15T07:15:05;21.23;;;12.57;;
20988;SDS011;10653;47.052;15.410;2024-02-15T07:17:34;19.70;;;11.50;;
20988;SDS011;10653;47.052;15.410;2024-02-15T07:20:02;13.70;;;10.73;;
20988;SDS011;10653;47.052;15.410;2024-02-15T07:22:30;13.73;;;8.33;;
20988;SDS011;10653;47.052;15.410;2024-02-15T07:24:56;11.17;;;8.53;;
20988;SDS011;10653;47.052;15.410;2024-02-15T07:27:22;13.10;;;9.73;;
20988;SDS011;10653;47.052;15.410;2024-02-15T07:29:51;16.00;;;9.47;;
20988;SDS011;10653;47.052;15.410;2024-02-15T07:32:17;9.27;;;7.60;;
20988;SDS011;10653;47.052;15.410;2024-02-15T07:34:43;10.57;;;8.43;;
20988;SDS011;10653;47.052;15.410;2024-02-15T07:37:10;13.37;;;8.60;;
20988;SDS011;10653;47.052;15.410;2024-02-15T07:39:37;9.80;;;7.70;;
20988;SDS011;10653;47.052;15.410;2024-02-15T07:42:05;11.20;;;7.47;;
20988;SDS011;10653;47.052;15.410;2024-02-15T07:44:33;11.90;;;7.37;;
20988;SDS011;10653;47.052;15.410;2024-02-15T07:47:01;11.80;;;8.03;;
20988;SDS011;10653;47.052;15.410;2024-02-15T07:49:27;13.87;;;8.03;;
20988;SDS011;10653;47.052;15.410;2024-02-15T07:51:53;13.03;;;7.07;;
20988;SDS011;10653;47.052;15.410;2024-02-15T07:54:19;13.00;;;7.00;;
20988;SDS011;10653;47.052;15.410;2024-02-15T07:56:46;8.70;;;6.43;;
20988;SDS011;10653;47.052;15.410;2024-02-15T07:59:13;12.60;;;7.80;;
20988;SDS011;10653;47.052;15.410;2024-02-15T08:01:41;12.27;;;7.33;;
20988;SDS011;10653;47.052;15.410;2024-02-15T08:04:08;7.60;;;6.30;;
20988;SDS011;10653;47.052;15.410;2024-02-15T08:06:34;8.30;;;6.60;;
20988;SDS011;10653;47.052;15.410;2024-02-15T08:09:02;10.97;;;6.30;;
20988;SDS011;10653;47.052;15.410;2024-02-15T08:11:31;10.83;;;5.83;;
20988;SDS011;10653;47.052;15.410;2024-02-15T08:13:57;13.50;;;5.80;;
20988;SDS011;10653;47.052;15.410;2024-02-15T08:16:26;8.00;;;4.60;;
20988;SDS011;10653;47.052;15.410;2024-02-15T08:18:52;6.00;;;5.00;;
20988;SDS011;10653;47.052;15.410;2024-02-15T08:21:28;5.17;;;4.33;;
20988;SDS011;10653;47.052;15.410;2024-02-15T08:23:57;6.83;;;4.50;;
20988;SDS011;10653;47.052;15.410;2024-02-15T08:26:23;5.90;;;4.80;;
20988;SDS011;10653;47.052;15.410;2024-02-15T08:28:49;9.30;;;5.70;;
20988;SDS011;10653;47.052;15.410;2024-02-15T08:31:16;6.73;;;5.40;;
20988;SDS011;10653;47.052;15.410;2024-02-15T08:33:42;6.37;;;4.60;;
20988;SDS011;10653;47.052;15.410;2024-02-15T08:36:09;8.07;;;5.33;;
20988;SDS011;10653;47.052;15.410;2024-02-15T08:38:39;6.60;;;4.60;;
20988;SDS011;10653;47.052;15.410;2024-02-15T08:41:06;11.03;;;5.70;;
20988;SDS011;10653;47.052;15.410;2024-02-15T08:43:33;7.93;;;4.67;;
20988;SDS011;10653;47.052;15.410;2024-02-15T08:45:59;6.57;;;5.47;;
20988;SDS011;10653;47.052;15.410;2024-02-15T08:48:26;7.63;;;4.97;;
20988;SDS011;10653;47.052;15.410;2024-02-15T08:50:52;8.00;;;5.50;;
20988;SDS011;10653;47.052;15.410;2024-02-15T08:53:18;7.40;;;6.37;;
20988;SDS011;10653;47.052;15.410;2024-02-15T08:55:45;9.93;;;6.00;;
20988;SDS011;10653;47.052;15.410;2024-02-15T08:58:11;9.00;;;6.37;;
20988;SDS011;10653;47.052;15.410;2024-02-15T09:00:37;8.87;;;6.97;;
20988;SDS011;10653;47.052;15.410;2024-02-15T09:03:09;8.90;;;6.80;;
20988;SDS011;10653;47.052;15.410;2024-02-15T09:05:35;7.37;;;6.40;;
20988;SDS011;10653;47.052;15.410;2024-02-15T09:08:01;10.30;;;6.70;;
20988;SDS011;10653;47.052;15.410;2024-02-15T09:10:29;9.33;;;6.53;;
20988;SDS011;10653;47.052;15.410;2024-02-15T09:12:55;8.37;;;6.10;;
20988;SDS011;10653;47.052;15.410;2024-02-15T09:15:22;11.63;;;7.70;;
20988;SDS011;10653;47.052;15.410;2024-02-15T09:17:48;10.30;;;6.60;;
20988;SDS011;10653;47.052;15.410;2024-02-15T09:20:15;10.00;;;5.60;;
20988;SDS011;10653;47.052;15.410;2024-02-15T09:22:46;7.30;;;5.10;;
20988;SDS011;10653;47.052;15.410;2024-02-15T09:25:13;6.90;;;5.10;;
20988;SDS011;10653;47.052;15.410;2024-02-15T09:27:39;7.93;;;4.90;;
20988;SDS011;10653;47.052;15.410;2024-02-15T09:30:05;5.80;;;4.10;;
20988;SDS011;10653;47.052;15.410;2024-02-15T09:32:34;6.40;;;5.23;;
20988;SDS011;10653;47.052;15.410;2024-02-15T09:35:00;5.93;;;4.30;;
20988;SDS011;10653;47.052;15.410;2024-02-15T09:37:26;8.03;;;4.33;;
20988;SDS011;10653;47.052;15.410;2024-02-15T09:39:53;11.00;;;4.40;;
20988;SDS011;10653;47.052;15.410;2024-02-15T09:42:20;14.80;;;5.03;;
20988;SDS011;10653;47.052;15.410;2024-02-15T09:44:46;4.60;;;3.47;;
20988;SDS011;10653;47.052;15.410;2024-02-15T09:47:12;5.67;;;4.13;;
20988;SDS011;10653;47.052;15.410;2024-02-15T09:49:40;7.87;;;4.20;;
20988;SDS011;10653;47.052;15.410;2024-02-15T09:52:07;7.40;;;3.93;;
20988;SDS011;10653;47.052;15.410;2024-02-15T09:54:40;6.13;;;5.03;;
20988;SDS011;10653;47.052;15.410;2024-02-15T09:57:09;10.03;;;4.77;;
20988;SDS011;10653;47.052;15.410;2024-02-15T09:59:38;6.13;;;4.90;;
20988;SDS011;10653;47.052;15.410;2024-02-15T10:02:05;5.30;;;4.73;;
20988;SDS011;10653;47.052;15.410;2024-02-15T10:04:38;9.30;;;4.80;;
20988;SDS011;10653;47.052;15.410;2024-02-15T10:07:05;8.30;;;4.37;;
20988;SDS011;10653;47.052;15.410;2024-02-15T10:09:33;5.70;;;3.87;;
20988;SDS011;10653;47.052;15.410;2024-02-15T10:12:01;7.97;;;4.13;;
20988;SDS011;10653;47.052;15.410;2024-02-15T10:14:29;7.40;;;4.20;;
20988;SDS011;10653;47.052;15.410;2024-02-15T10:16:55;10.30;;;4.50;;
20988;SDS011;10653;47.052;15.410;2024-02-15T10:19:24;5.77;;;4.57;;
20988;SDS011;10653;47.052;15.410;2024-02-15T10:21:53;6.43;;;4.10;;
20988;SDS011;10653;47.052;15.410;2024-02-15T10:24:23;4.63;;;3.67;;
20988;SDS011;10653;47.052;15.410;2024-02-15T10:26:49;8.70;;;4.80;;
20988;SDS011;10653;47.052;15.410;2024-02-15T10:29:16;7.03;;;4.20;;
20988;SDS011;10653;47.052;15.410;2024-02-15T10:31:58;9.37;;;4.03;;
20988;SDS011;10653;47.052;15.410;2024-02-15T10:34:24;6.60;;;4.00;;
20988;SDS011;10653;47.052;15.410;2024-02-15T10:36:53;7.03;;;4.17;;
20988;SDS011;10653;47.052;15.410;2024-02-15T10:39:22;5.00;;;3.80;;
20988;SDS011;10653;47.052;15.410;2024-02-15T10:44:16;8.90;;;4.73;;
20988;SDS011;10653;47.052;15.410;2024-02-15T10:46:43;6.77;;;3.93;;
20988;SDS011;10653;47.052;15.410;2024-02-15T10:49:10;7.60;;;4.40;;
20988;SDS011;10653;47.052;15.410;2024-02-15T10:51:36;5.57;;;3.73;;
20988;SDS011;10653;47.052;15.410;2024-02-15T10:54:08;7.50;;;3.53;;
20988;SDS011;10653;47.052;15.410;2024-02-15T10:56:41;10.13;;;5.73;;
20988;SDS011;10653;47.052;15.410;2024-02-15T10:59:18;7.73;;;5.50;;
20988;SDS011;10653;47.052;15.410;2024-02-15T11:01:47;12.83;;;6.83;;
20988;SDS011;10653;47.052;15.410;2024-02-15T11:04:19;7.77;;;5.50;;
20988;SDS011;10653;47.052;15.410;2024-02-15T11:06:51;12.43;;;5.60;;
20988;SDS011;10653;47.052;15.410;2024-02-15T11:09:20;7.90;;;4.93;;
20988;SDS011;10653;47.052;15.410;2024-02-15T11:11:47;9.47;;;5.37;;
20988;SDS011;10653;47.052;15.410;2024-02-15T11:14:31;10.97;;;5.30;;
20988;SDS011;10653;47.052;15.410;2024-02-15T11:16:58;11.03;;;4.90;;
20988;SDS011;10653;47.052;15.410;2024-02-15T11:24:36;8.73;;;5.17;;
20988;SDS011;10653;47.052;15.410;2024-02-15T11:27:04;8.60;;;4.37;;
20988;SDS011;10653;47.052;15.410;2024-02-15T11:29:50;5.30;;;3.97;;
20988;SDS011;10653;47.052;15.410;2024-02-15T11:35:08;5.43;;;3.13;;
20988;SDS011;10653;47.052;15.410;2024-02-15T11:42:58;7.83;;;3.70;;
20988;SDS011;10653;47.052;15.410;2024-02-15T11:45:27;6.80;;;4.47;;
20988;SDS011;10653;47.052;15.410;2024-02-15T11:48:09;7.50;;;5.03;;
20988;SDS011;10653;47.052;15.410;2024-02-15T11:50:38;5.30;;;4.20;;
20988;SDS011;10653;47.052;15.410;2024-02-15T11:53:05;6.67;;;3.80;;
20988;SDS011;10653;47.052;15.410;2024-02-15T11:55:34;6.37;;;3.77;;
20988;SDS011;10653;47.052;15.410;2024-02-15T11:58:01;4.70;;;3.10;;
20988;SDS011;10653;47.052;15.410;2024-02-15T12:00:42;6.43;;;3.57;;
20988;SDS011;10653;47.052;15.410;2024-02-15T12:03:27;5.93;;;3.80;;
20988;SDS011;10653;47.052;15.410;2024-02-15T12:06:16;6.93;;;4.53;;
20988;SDS011;10653;47.052;15.410;2024-02-15T12:09:01;7.60;;;3.70;;
20988;SDS011;10653;47.052;15.410;2024-02-15T12:11:46;5.90;;;3.93;;
20988;SDS011;10653;47.052;15.410;2024-02-15T12:14:30;5.20;;;3.70;;
20988;SDS011;10653;47.052;15.410;2024-02-15T12:17:15;6.90;;;3.33;;
20988;SDS011;10653;47.052;15.410;2024-02-15T12:20:00;3.47;;;2.70;;
20988;SDS011;10653;47.052;15.410;2024-02-15T12:22:32;6.57;;;3.77;;
20988;SDS011;10653;47.052;15.410;2024-02-15T12:24:59;5.27;;;3.60;;
20988;SDS011;10653;47.052;15.410;2024-02-15T12:27:25;3.77;;;3.23;;
20988;SDS011;10653;47.052;15.410;2024-02-15T12:32:22;8.40;;;3.03;;
20988;SDS011;10653;47.052;15.410;2024-02-15T12:34:49;4.33;;;2.97;;
20988;SDS011;10653;47.052;15.410;2024-02-15T12:37:17;4.27;;;2.67;;
20988;SDS011;10653;47.052;15.410;2024-02-15T12:39:43;4.47;;;2.77;;
20988;SDS011;10653;47.052;15.410;2024-02-15T12:42:09;3.60;;;2.73;;
20988;SDS011;10653;47.052;15.410;2024-02-15T12:44:35;3.00;;;2.70;;
20988;SDS011;10653;47.052;15.410;2024-02-15T12:47:01;4.43;;;3.17;;
20988;SDS011;10653;47.052;15.410;2024-02-15T12:49:31;6.80;;;3.10;;
20988;SDS011;10653;47.052;15.410;2024-02-15T12:54:44;5.63;;;2.87;;
20988;SDS011;10653;47.052;15.410;2024-02-15T12:57:10;3.20;;;2.63;;
20988;SDS011;10653;47.052;15.410;2024-02-15T12:59:38;6.97;;;2.30;;
20988;SDS011;10653;47.052;15.410;2024-02-15T13:02:04;3.43;;;2.53;;
20988;SDS011;10653;47.052;15.410;2024-02-15T13:04:30;3.47;;;2.50;;
20988;SDS011;10653;47.052;15.410;2024-02-15T13:06:56;4.87;;;2.60;;
20988;SDS011;10653;47.052;15.410;2024-02-15T13:09:22;4.00;;;2.30;;
20988;SDS011;10653;47.052;15.410;2024-02-15T13:11:48;4.00;;;2.50;;
20988;SDS011;10653;47.052;15.410;2024-02-15T13:14:15;4.97;;;2.33;;
20988;SDS011;10653;47.052;15.410;2024-02-15T13:16:41;2.73;;;2.10;;
20988;SDS011;10653;47.052;15.410;2024-02-15T13:19:11;2.60;;;2.30;;
20988;SDS011;10653;47.052;15.410;2024-02-15T13:21:37;3.00;;;2.00;;
20988;SDS011;10653;47.052;15.410;2024-02-15T13:24:03;2.50;;;2.00;;
20988;SDS011;10653;47.052;15.410;2024-02-15T13:26:30;6.10;;;2.87;;
20988;SDS011;10653;47.052;15.410;2024-02-15T13:28:57;5.83;;;2.60;;
20988;SDS011;10653;47.052;15.410;2024-02-15T13:31:23;8.00;;;2.43;;
20988;SDS011;10653;47.052;15.410;2024-02-15T13:33:49;3.83;;;2.17;;
20988;SDS011;10653;47.052;15.410;2024-02-15T13:36:16;4.50;;;2.57;;
20988;SDS011;10653;47.052;15.410;2024-02-15T13:38:42;3.17;;;2.30;;
20988;SDS011;10653;47.052;15.410;2024-02-15T13:41:08;4.30;;;2.60;;
20988;SDS011;10653;47.052;15.410;2024-02-15T13:43:34;3.80;;;2.07;;
20988;SDS011;10653;47.052;15.410;2024-02-15T13:46:00;4.30;;;2.33;;
20988;SDS011;10653;47.052;15.410;2024-02-15T13:48:29;4.50;;;2.20;;
20988;SDS011;10653;47.052;15.410;2024-02-15T13:50:56;3.90;;;2.50;;
20988;SDS011;10653;47.052;15.410;2024-02-15T13:53:23;5.33;;;2.30;;
20988;SDS011;10653;47.052;15.410;2024-02-15T13:55:50;2.83;;;2.40;;
20988;SDS011;10653;47.052;15.410;2024-02-15T13:58:17;3.20;;;2.50;;
20988;SDS011;10653;47.052;15.410;2024-02-15T14:00:43;6.23;;;2.80;;
20988;SDS011;10653;47.052;15.410;2024-02-15T14:03:10;7.30;;;2.30;;
20988;SDS011;10653;47.052;15.410;2024-02-15T14:05:37;4.20;;;2.47;;
20988;SDS011;10653;47.052;15.410;2024-02-15T14:08:06;6.37;;;2.30;;
20988;SDS011;10653;47.052;15.410;2024-02-15T14:10:34;3.23;;;2.60;;
20988;SDS011;10653;47.052;15.410;2024-02-15T14:13:01;3.33;;;2.50;;
20988;SDS011;10653;47.052;15.410;2024-02-15T14:15:28;4.17;;;2.50;;
20988;SDS011;10653;47.052;15.410;2024-02-15T14:17:55;4.87;;;2.20;;
20988;SDS011;10653;47.052;15.410;2024-02-15T14:20:21;7.63;;;3.33;;
20988;SDS011;10653;47.052;15.410;2024-02-15T14:22:48;2.40;;;2.03;;
20988;SDS011;10653;47.052;15.410;2024-02-15T14:25:20;2.93;;;2.50;;
20988;SDS011;10653;47.052;15.410;2024-02-15T14:27:46;2.67;;;2.30;;
20988;SDS011;10653;47.052;15.410;2024-02-15T14:30:15;2.80;;;2.20;;
20988;SDS011;10653;47.052;15.410;2024-02-15T14:33:00;3.37;;;2.23;;
20988;SDS011;10653;47.052;15.410;2024-02-15T14:35:32;3.23;;;2.20;;
20988;SDS011;10653;47.052;15.410;2024-02-15T14:38:00;4.43;;;2.17;;
20988;SDS011;10653;47.052;15.410;2024-02-15T14:40:28;6.00;;;2.60;;
20988;SDS011;10653;47.052;15.410;2024-02-15T14:42:54;2.63;;;2.10;;
20988;SDS011;10653;47.052;15.410;2024-02-15T14:45:20;3.77;;;1.83;;
20988;SDS011;10653;47.052;15.410;2024-02-15T14:47:47;3.03;;;2.37;;
20988;SDS011;10653;47.052;15.410;2024-02-15T14:50:13;3.63;;;2.53;;
20988;SDS011;10653;47.052;15.410;2024-02-15T14:52:39;2.87;;;2.47;;
20988;SDS011;10653;47.052;15.410;2024-02-15T14:55:05;3.23;;;2.13;;